createdAt,value
2022-10-06T00:01:20.238Z,9.77
2022-10-06T00:03:23.093Z,9.33
2022-10-06T00:05:24.855Z,10.20
2022-10-06T00:07:26.354Z,9.98
2022-10-06T00:09:27.907Z,10.50
2022-10-06T00:11:29.609Z,10.48
2022-10-06T00:13:31.746Z,11.05
2022-10-06T00:15:33.470Z,10.57
2022-10-06T00:17:35.292Z,10.48
2022-10-06T00:19:36.873Z,10.48
2022-10-06T00:21:38.544Z,10.55
2022-10-06T00:23:40.499Z,10.45
2022-10-06T00:25:42.335Z,9.80
2022-10-06T00:27:47.259Z,10.77
2022-10-06T00:29:49.101Z,10.20
2022-10-06T00:31:50.644Z,10.07
2022-10-06T00:33:52.433Z,9.65
2022-10-06T00:35:58.233Z,10.75
2022-10-06T00:38:00.652Z,11.00
2022-10-06T00:40:02.420Z,10.00
2022-10-06T00:42:04.886Z,10.20
2022-10-06T00:44:06.404Z,10.23
2022-10-06T00:46:16.963Z,10.27
2022-10-06T00:48:20.560Z,10.18
2022-10-06T00:50:22.147Z,10.32
2022-10-06T00:52:25.369Z,10.25
2022-10-06T00:54:27.512Z,9.98
2022-10-06T00:56:29.539Z,9.95
2022-10-06T00:58:31.725Z,9.82
2022-10-06T01:00:33.958Z,10.25
2022-10-06T01:02:43.689Z,10.10
2022-10-06T01:04:48.097Z,9.82
2022-10-06T01:06:51.865Z,9.48
2022-10-06T01:08:53.663Z,8.65
2022-10-06T01:10:55.279Z,9.88
2022-10-06T01:12:57.210Z,9.50
2022-10-06T01:14:59.196Z,9.60
2022-10-06T01:17:02.704Z,9.48
2022-10-06T01:19:08.835Z,9.25
2022-10-06T01:21:14.836Z,9.65
2022-10-06T01:23:16.594Z,9.25
2022-10-06T01:25:18.523Z,9.50
2022-10-06T01:27:20.665Z,9.05
2022-10-06T01:29:22.255Z,8.75
2022-10-06T01:31:24.479Z,9.30
2022-10-06T01:33:26.240Z,9.20
2022-10-06T01:35:27.842Z,9.18
2022-10-06T01:37:29.620Z,8.82
2022-10-06T01:39:31.407Z,9.05
2022-10-06T01:41:33.994Z,9.32
2022-10-06T01:45:37.415Z,9.52
2022-10-06T01:47:38.995Z,9.35
2022-10-06T01:49:40.783Z,9.20
2022-10-06T01:51:42.322Z,8.75
2022-10-06T01:53:43.889Z,8.75
2022-10-06T01:55:46.387Z,9.00
2022-10-06T01:57:47.964Z,9.05
2022-10-06T01:59:54.448Z,8.82
2022-10-06T02:01:56.686Z,9.68
2022-10-06T02:03:58.594Z,8.70
2022-10-06T02:06:00.247Z,8.35
2022-10-06T02:08:02.654Z,8.63
2022-10-06T02:10:05.025Z,8.75
2022-10-06T02:12:06.582Z,8.82
2022-10-06T02:14:08.354Z,8.43
2022-10-06T02:16:11.765Z,9.10
2022-10-06T02:18:13.355Z,9.32
2022-10-06T02:20:15.515Z,8.95
2022-10-06T02:22:17.058Z,9.07
2022-10-06T02:24:18.720Z,8.40
2022-10-06T02:26:20.642Z,8.10
2022-10-06T02:28:22.858Z,8.73
2022-10-06T02:30:24.387Z,8.00
2022-10-06T02:32:32.205Z,8.48
2022-10-06T02:34:33.765Z,7.90
2022-10-06T02:36:35.491Z,7.70
2022-10-06T02:38:37.222Z,7.97
2022-10-06T02:40:38.782Z,8.45
2022-10-06T02:42:40.366Z,7.82
2022-10-06T02:44:42.231Z,8.15
2022-10-06T02:46:43.783Z,8.45
2022-10-06T02:48:45.434Z,8.60
2022-10-06T02:50:52.572Z,8.40
2022-10-06T02:52:54.651Z,8.32
2022-10-06T02:54:56.263Z,7.78
2022-10-06T02:56:57.991Z,8.20
2022-10-06T02:58:59.579Z,8.57
2022-10-06T03:01:09.138Z,8.40
2022-10-06T03:03:10.856Z,8.20
2022-10-06T03:05:12.441Z,8.60
2022-10-06T03:07:14.454Z,8.10
2022-10-06T03:09:16.266Z,8.70
2022-10-06T03:11:21.363Z,8.98
2022-10-06T03:13:22.896Z,8.40
2022-10-06T03:15:24.618Z,8.27
2022-10-06T03:17:26.183Z,9.00
2022-10-06T03:19:27.725Z,9.40
2022-10-06T03:21:30.835Z,8.38
2022-10-06T03:25:34.159Z,8.48
2022-10-06T03:27:36.096Z,9.30
2022-10-06T03:29:37.640Z,8.07
2022-10-06T03:31:39.583Z,7.78
2022-10-06T03:33:41.512Z,7.40
2022-10-06T03:35:43.019Z,8.68
2022-10-06T03:37:44.548Z,8.63
2022-10-06T03:39:46.303Z,8.73
2022-10-06T03:41:47.980Z,8.00
2022-10-06T03:43:50.400Z,8.18
2022-10-06T03:45:57.013Z,8.52
2022-10-06T03:47:59.249Z,8.05
2022-10-06T03:50:00.823Z,8.27
2022-10-06T03:52:02.594Z,8.40
2022-10-06T03:54:04.218Z,8.30
2022-10-06T03:56:07.395Z,8.77
2022-10-06T03:58:09.236Z,8.63
2022-10-06T04:00:11.247Z,7.97
2022-10-06T04:02:12.811Z,7.85
2022-10-06T04:04:14.729Z,8.05
2022-10-06T04:06:17.486Z,7.97
2022-10-06T04:08:19.160Z,7.63
2022-10-06T04:10:21.379Z,7.72
2022-10-06T04:12:23.201Z,8.43
2022-10-06T04:14:25.217Z,8.35
2022-10-06T04:16:28.395Z,8.52
2022-10-06T04:20:31.793Z,8.00
2022-10-06T04:22:33.598Z,8.65
2022-10-06T04:24:35.142Z,8.23
2022-10-06T04:26:41.040Z,8.45
2022-10-06T04:28:44.180Z,7.82
2022-10-06T04:32:47.220Z,8.23
2022-10-06T04:34:49.016Z,8.52
2022-10-06T04:36:50.535Z,7.55
2022-10-06T04:38:56.258Z,8.82
2022-10-06T04:41:03.727Z,7.53
2022-10-06T04:43:05.704Z,8.75
2022-10-06T04:45:07.613Z,8.55
2022-10-06T04:47:09.371Z,7.80
2022-10-06T04:49:16.232Z,7.78
2022-10-06T04:51:21.386Z,8.43
2022-10-06T04:53:23.266Z,8.23
2022-10-06T04:55:24.762Z,7.85
2022-10-06T04:57:26.287Z,9.18
2022-10-06T04:59:48.290Z,8.07
2022-10-06T05:01:49.878Z,7.95
2022-10-06T05:03:52.853Z,8.38
2022-10-06T05:06:14.602Z,8.50
2022-10-06T05:08:16.329Z,8.23
2022-10-06T05:10:18.272Z,7.75
2022-10-06T05:12:20.012Z,7.95
2022-10-06T05:14:21.582Z,7.70
2022-10-06T05:16:24.739Z,8.13
2022-10-06T05:18:27.865Z,8.23
2022-10-06T05:22:31.173Z,6.95
2022-10-06T05:24:32.885Z,6.93
2022-10-06T05:26:35.994Z,7.20
2022-10-06T05:28:37.613Z,6.60
2022-10-06T05:30:39.586Z,6.50
2022-10-06T05:32:41.119Z,6.40
2022-10-06T05:34:42.716Z,6.63
2022-10-06T05:36:44.428Z,6.72
2022-10-06T05:38:46.661Z,6.22
2022-10-06T05:40:48.315Z,6.88
2022-10-06T05:42:50.182Z,6.85
2022-10-06T05:44:51.748Z,6.47
2022-10-06T05:46:53.255Z,6.72
2022-10-06T05:49:06.100Z,7.13
2022-10-06T05:51:09.495Z,6.45
2022-10-06T05:53:11.038Z,6.78
2022-10-06T05:55:13.318Z,7.75
2022-10-06T05:57:14.974Z,7.10
2022-10-06T05:59:16.666Z,7.05
2022-10-06T06:01:22.852Z,6.63
2022-10-06T06:03:24.497Z,6.78
2022-10-06T06:05:26.080Z,6.90
2022-10-06T06:07:28.093Z,6.90
2022-10-06T06:09:29.682Z,6.20
2022-10-06T06:11:31.663Z,43.58
2022-10-06T06:13:33.890Z,6.75
2022-10-06T06:15:54.005Z,6.32
2022-10-06T06:17:55.539Z,6.20
2022-10-06T06:19:57.405Z,6.10
2022-10-06T06:21:59.053Z,6.07
2022-10-06T06:24:00.679Z,6.20
2022-10-06T06:26:03.963Z,5.90
2022-10-06T06:28:05.868Z,6.20
2022-10-06T06:30:08.181Z,6.22
2022-10-06T06:32:09.944Z,6.32
2022-10-06T06:34:12.203Z,5.90
2022-10-06T06:36:13.884Z,6.10
2022-10-06T06:38:15.688Z,6.10
2022-10-06T06:40:17.314Z,6.28
2022-10-06T06:42:18.863Z,6.85
2022-10-06T06:44:20.829Z,5.75
2022-10-06T06:46:25.055Z,5.82
2022-10-06T06:48:27.151Z,6.47
2022-10-06T06:50:29.404Z,6.45
2022-10-06T06:52:31.614Z,6.60
2022-10-06T06:54:33.213Z,7.18
2022-10-06T06:56:35.470Z,6.70
2022-10-06T06:58:37.178Z,7.05
2022-10-06T07:00:38.663Z,7.00
2022-10-06T07:02:40.493Z,6.65
2022-10-06T07:04:43.752Z,6.85
2022-10-06T07:06:57.162Z,7.25
2022-10-06T07:08:59.575Z,7.22
2022-10-06T07:11:09.870Z,7.25
2022-10-06T07:13:17.365Z,6.88
2022-10-06T07:15:37.852Z,7.03
2022-10-06T07:17:57.851Z,7.60
2022-10-06T07:20:18.335Z,6.80
2022-10-06T07:22:40.528Z,7.53
2022-10-06T07:25:00.825Z,11.32
2022-10-06T07:27:02.494Z,8.77
2022-10-06T07:29:04.397Z,7.50
2022-10-06T07:31:06.684Z,6.90
2022-10-06T07:33:09.223Z,7.32
2022-10-06T07:35:11.115Z,6.80
2022-10-06T07:37:14.306Z,7.18
2022-10-06T07:39:15.887Z,6.75
2022-10-06T07:41:20.099Z,7.10
2022-10-06T07:43:22.407Z,6.93
2022-10-06T07:45:45.053Z,6.82
2022-10-06T07:47:47.068Z,7.80
2022-10-06T07:49:48.561Z,7.07
2022-10-06T07:51:50.141Z,15.02
2022-10-06T07:53:52.432Z,8.32
2022-10-06T07:55:53.979Z,7.43
2022-10-06T07:57:55.479Z,7.45
2022-10-06T08:00:02.037Z,7.20
2022-10-06T08:02:04.722Z,7.07
2022-10-06T08:04:06.753Z,7.07
2022-10-06T08:06:17.012Z,7.07
2022-10-06T08:08:19.304Z,6.70
2022-10-06T08:10:21.097Z,7.80
2022-10-06T08:12:38.491Z,7.70
2022-10-06T08:14:40.055Z,7.28
2022-10-06T08:16:42.111Z,7.40
2022-10-06T08:18:48.144Z,6.95
2022-10-06T08:20:49.761Z,6.78
2022-10-06T08:22:51.491Z,7.25
2022-10-06T08:25:05.701Z,7.57
2022-10-06T08:27:09.730Z,7.10
2022-10-06T08:29:11.497Z,6.57
2022-10-06T08:31:15.670Z,7.17
2022-10-06T08:33:21.071Z,6.93
2022-10-06T08:35:23.879Z,6.50
2022-10-06T08:37:27.374Z,7.28
2022-10-06T08:39:31.016Z,6.80
2022-10-06T08:41:32.583Z,7.10
2022-10-06T08:43:34.640Z,6.65
2022-10-06T08:45:43.315Z,6.65
2022-10-06T08:47:53.082Z,6.50
2022-10-06T08:49:55.724Z,6.78
2022-10-06T08:52:03.824Z,6.72
2022-10-06T08:54:11.250Z,6.80
2022-10-06T08:56:18.461Z,6.85
2022-10-06T08:58:20.391Z,5.85
2022-10-06T09:00:22.382Z,6.85
2022-10-06T09:02:29.953Z,6.72
2022-10-06T09:04:32.269Z,6.88
2022-10-06T09:06:52.400Z,6.53
2022-10-06T09:08:56.261Z,5.97
2022-10-06T09:11:10.979Z,6.43
2022-10-06T09:13:18.448Z,6.55
2022-10-06T09:15:30.084Z,6.43
2022-10-06T09:17:37.406Z,6.28
2022-10-06T09:19:44.841Z,6.18
2022-10-06T09:21:49.660Z,7.10
2022-10-06T09:23:57.098Z,6.60
2022-10-06T09:25:59.034Z,6.50
2022-10-06T09:28:03.551Z,6.45
2022-10-06T09:30:06.239Z,6.80
2022-10-06T09:32:10.995Z,6.63
2022-10-06T09:34:22.175Z,6.30
2022-10-06T09:36:24.145Z,6.20
2022-10-06T09:38:45.338Z,6.33
2022-10-06T09:40:54.566Z,6.20
2022-10-06T09:42:56.322Z,6.65
2022-10-06T09:45:01.868Z,6.10
2022-10-06T09:47:21.888Z,6.65
2022-10-06T09:49:24.557Z,6.20
2022-10-06T09:51:28.495Z,5.85
2022-10-06T09:53:33.238Z,5.43
2022-10-06T09:55:37.066Z,5.45
2022-10-06T09:57:39.800Z,5.43
2022-10-06T10:01:43.181Z,5.28
2022-10-06T10:06:21.851Z,5.22
2022-10-06T10:08:27.528Z,5.60
2022-10-06T10:10:29.516Z,5.53
2022-10-06T10:12:33.627Z,5.00
2022-10-06T10:14:38.584Z,5.15
2022-10-06T10:16:40.350Z,4.85
2022-10-06T10:18:46.078Z,5.20
2022-10-06T10:20:52.078Z,5.03
2022-10-06T10:22:58.399Z,5.00
2022-10-06T10:25:19.432Z,5.20
2022-10-06T10:27:26.768Z,5.35
2022-10-06T10:29:42.449Z,4.88
2022-10-06T10:31:56.394Z,5.07
2022-10-06T10:34:11.947Z,5.32
2022-10-06T10:36:16.552Z,5.57
2022-10-06T10:38:22.570Z,5.15
2022-10-06T10:40:36.089Z,4.80
2022-10-06T10:42:45.800Z,5.95
2022-10-06T10:44:50.560Z,5.35
2022-10-06T10:46:54.378Z,5.53
2022-10-06T10:48:56.703Z,5.72
2022-10-06T10:51:03.004Z,5.60
2022-10-06T10:53:11.147Z,5.63
2022-10-06T10:55:29.823Z,5.65
2022-10-06T10:57:37.461Z,5.25
2022-10-06T10:59:47.963Z,5.75
2022-10-06T11:02:00.527Z,5.97
2022-10-06T11:04:03.114Z,5.90
2022-10-06T11:06:14.711Z,5.60
2022-10-06T11:08:27.080Z,5.43
2022-10-06T11:10:34.576Z,6.15
2022-10-06T11:12:42.323Z,5.55
2022-10-06T11:14:56.809Z,5.00
2022-10-06T11:17:05.062Z,5.10
2022-10-06T11:19:06.712Z,6.65
2022-10-06T11:21:21.316Z,5.28
2022-10-06T11:23:29.179Z,4.45
2022-10-06T11:25:41.946Z,4.40
2022-10-06T11:27:52.003Z,3.90
2022-10-06T11:29:54.225Z,4.10
2022-10-06T11:32:03.249Z,4.17
2022-10-06T11:34:06.496Z,4.32
2022-10-06T11:36:11.496Z,4.28
2022-10-06T11:38:13.035Z,3.90
2022-10-06T11:40:29.740Z,4.43
2022-10-06T11:42:37.716Z,4.90
2022-10-06T11:44:42.081Z,4.00
2022-10-06T11:46:45.833Z,4.22
2022-10-06T11:48:48.360Z,3.90
2022-10-06T11:50:53.049Z,4.10
2022-10-06T11:52:55.384Z,4.18
2022-10-06T11:55:07.734Z,3.85
2022-10-06T11:57:30.648Z,4.53
2022-10-06T11:59:32.980Z,4.15
2022-10-06T12:01:35.294Z,4.63
2022-10-06T12:03:47.407Z,4.68
2022-10-06T12:05:56.141Z,4.18
2022-10-06T12:07:59.085Z,4.60
2022-10-06T12:10:20.858Z,4.50
2022-10-06T12:12:25.418Z,4.68
2022-10-06T12:17:16.847Z,4.80
2022-10-06T12:19:27.571Z,4.60
2022-10-06T12:21:32.363Z,4.65
2022-10-06T12:23:41.709Z,4.50
2022-10-06T12:25:53.908Z,5.07
2022-10-06T12:28:02.688Z,4.53
2022-10-06T12:30:22.527Z,4.50
2022-10-06T12:32:24.253Z,4.63
2022-10-06T12:34:41.816Z,3.92
2022-10-06T12:36:45.111Z,4.60
2022-10-06T12:38:59.034Z,4.45
2022-10-06T12:41:01.746Z,4.40
2022-10-06T12:43:13.505Z,3.70
2022-10-06T12:45:16.730Z,4.40
2022-10-06T12:47:32.452Z,4.35
2022-10-06T12:49:42.888Z,4.70
2022-10-06T12:51:46.587Z,4.43
2022-10-06T12:53:57.199Z,3.95
2022-10-06T12:56:02.819Z,4.47
2022-10-06T12:58:04.406Z,3.75
2022-10-06T13:00:21.724Z,4.40
2022-10-06T13:02:26.079Z,3.63
2022-10-06T13:04:35.420Z,4.00
2022-10-06T13:06:37.300Z,4.07
2022-10-06T13:08:39.341Z,4.25
2022-10-06T13:10:41.013Z,3.25
2022-10-06T13:12:46.586Z,4.15
2022-10-06T13:14:48.663Z,4.00
2022-10-06T13:18:56.847Z,3.75
2022-10-06T13:20:58.924Z,3.58
2022-10-06T13:23:02.637Z,3.65
2022-10-06T13:25:04.639Z,3.97
2022-10-06T13:27:06.255Z,3.80
2022-10-06T13:29:18.279Z,3.72
2022-10-06T13:31:21.958Z,4.03
2022-10-06T13:33:24.242Z,3.55
2022-10-06T13:35:26.520Z,3.72
2022-10-06T13:37:28.504Z,3.40
2022-10-06T13:39:33.170Z,3.30
2022-10-06T13:41:37.055Z,3.20
2022-10-06T13:43:40.821Z,3.00
2022-10-06T13:45:43.298Z,3.17
2022-10-06T13:47:44.972Z,3.17
2022-10-06T13:49:59.579Z,3.03
2022-10-06T13:52:15.532Z,2.78
2022-10-06T13:54:36.243Z,3.22
2022-10-06T13:56:39.443Z,3.30
2022-10-06T13:58:41.078Z,3.00
2022-10-06T14:00:46.742Z,3.20
2022-10-06T14:02:50.699Z,2.47
2022-10-06T14:05:10.892Z,2.67
2022-10-06T14:07:13.958Z,2.60
2022-10-06T14:09:30.899Z,2.80
2022-10-06T14:11:32.639Z,3.20
2022-10-06T14:13:50.581Z,3.05
2022-10-06T14:15:56.033Z,2.90
2022-10-06T14:18:01.952Z,2.67
2022-10-06T14:20:24.521Z,2.80
2022-10-06T14:22:34.361Z,12.88
2022-10-06T14:24:37.418Z,3.47
2022-10-06T14:26:39.814Z,3.33
2022-10-06T14:28:46.070Z,3.03
2022-10-06T14:30:47.894Z,2.75
2022-10-06T14:32:49.644Z,3.25
2022-10-06T14:34:51.411Z,3.33
2022-10-06T14:36:55.124Z,3.22
2022-10-06T14:38:57.379Z,4.65
2022-10-06T14:41:02.925Z,3.17
2022-10-06T14:43:04.492Z,3.08
2022-10-06T14:45:06.813Z,3.22
2022-10-06T14:47:09.523Z,2.65
2022-10-06T14:49:12.291Z,2.58
2022-10-06T14:51:13.976Z,2.35
2022-10-06T14:53:17.369Z,2.55
2022-10-06T14:55:19.040Z,2.75
2022-10-06T14:57:21.696Z,2.53
2022-10-06T14:59:23.611Z,3.13
2022-10-06T15:01:26.373Z,3.63
2022-10-06T15:03:28.281Z,3.28
2022-10-06T15:05:30.752Z,2.65
2022-10-06T15:07:51.000Z,2.92
2022-10-06T15:09:52.723Z,2.83
2022-10-06T15:11:54.576Z,2.78
2022-10-06T15:13:58.006Z,3.05
2022-10-06T15:15:59.670Z,3.10
2022-10-06T15:18:02.894Z,2.70
2022-10-06T15:20:04.760Z,2.88
2022-10-06T15:22:08.811Z,2.90
2022-10-06T15:24:18.003Z,3.00
2022-10-06T15:26:38.649Z,2.80
2022-10-06T15:28:59.044Z,2.97
2022-10-06T15:31:01.692Z,3.08
2022-10-06T15:33:05.651Z,3.58
2022-10-06T15:35:07.340Z,3.13
2022-10-06T15:37:09.436Z,3.13
2022-10-06T15:39:13.106Z,3.20
2022-10-06T15:41:15.906Z,3.17
2022-10-06T15:43:37.852Z,2.65
2022-10-06T15:45:39.417Z,2.88
2022-10-06T15:47:40.994Z,3.08
2022-10-06T15:49:42.982Z,2.80
2022-10-06T15:51:49.050Z,2.95
2022-10-06T15:53:50.724Z,3.08
2022-10-06T15:55:52.467Z,3.13
2022-10-06T15:57:54.240Z,3.70
2022-10-06T15:59:55.839Z,2.75
2022-10-06T16:02:03.985Z,2.83
2022-10-06T16:04:12.505Z,2.70
2022-10-06T16:06:17.522Z,3.13
2022-10-06T16:08:19.393Z,2.75
2022-10-06T16:10:20.926Z,2.55
2022-10-06T16:12:22.920Z,2.42
2022-10-06T16:14:25.334Z,2.40
2022-10-06T16:16:26.927Z,2.60
2022-10-06T16:18:29.040Z,2.40
2022-10-06T16:20:30.825Z,2.40
2022-10-06T16:22:32.487Z,2.38
2022-10-06T16:24:34.124Z,2.75
2022-10-06T16:26:35.972Z,2.33
2022-10-06T16:28:37.644Z,2.75
2022-10-06T16:30:39.225Z,2.83
2022-10-06T16:32:41.479Z,2.92
2022-10-06T16:34:43.172Z,6.35
2022-10-06T16:36:45.027Z,2.88
2022-10-06T16:38:49.403Z,2.60
2022-10-06T16:40:57.570Z,3.13
2022-10-06T16:42:59.159Z,2.30
2022-10-06T16:45:01.073Z,2.80
2022-10-06T16:47:02.689Z,2.50
2022-10-06T16:49:04.424Z,2.15
2022-10-06T16:51:06.408Z,2.40
2022-10-06T16:53:07.939Z,2.53
2022-10-06T16:55:09.460Z,5.43
2022-10-06T16:57:11.262Z,8.63
2022-10-06T16:59:12.931Z,4.78
2022-10-06T17:01:15.208Z,2.85
2022-10-06T17:03:17.007Z,2.53
2022-10-06T17:05:18.554Z,2.60
2022-10-06T17:07:20.129Z,2.50
2022-10-06T17:09:23.458Z,2.30
2022-10-06T17:11:25.467Z,2.40
2022-10-06T17:13:27.034Z,3.13
2022-10-06T17:15:33.404Z,2.10
2022-10-06T17:17:35.242Z,2.78
2022-10-06T17:19:36.864Z,2.30
2022-10-06T17:21:48.061Z,2.70
2022-10-06T17:23:58.384Z,2.65
2022-10-06T17:26:08.066Z,2.25
2022-10-06T17:28:10.686Z,2.00
2022-10-06T17:30:12.294Z,2.70
2022-10-06T17:32:15.158Z,2.45
2022-10-06T17:36:23.647Z,2.17
2022-10-06T17:40:28.339Z,3.60
2022-10-06T17:42:30.951Z,2.90
2022-10-06T17:44:32.721Z,3.15
2022-10-06T17:46:39.040Z,2.42
2022-10-06T17:48:41.618Z,2.88
2022-10-06T17:50:43.116Z,2.95
2022-10-06T17:52:46.303Z,3.08
2022-10-06T17:56:50.355Z,2.58
2022-10-06T18:00:54.144Z,3.08
2022-10-06T18:03:00.157Z,3.13
2022-10-06T18:05:02.224Z,2.60
2022-10-06T18:07:03.929Z,2.90
2022-10-06T18:09:06.309Z,4.32
2022-10-06T18:11:28.758Z,2.92
2022-10-06T18:13:31.941Z,3.00
2022-10-06T18:15:37.054Z,3.60
2022-10-06T18:17:38.792Z,3.08
2022-10-06T18:19:40.306Z,3.42
2022-10-06T18:21:42.734Z,2.95
2022-10-06T18:23:44.819Z,3.70
2022-10-06T18:25:46.660Z,3.35
2022-10-06T18:27:48.289Z,3.95
2022-10-06T18:29:50.088Z,3.40
2022-10-06T18:31:53.217Z,3.78
2022-10-06T18:36:16.729Z,4.55
2022-10-06T18:38:18.328Z,3.97
2022-10-06T18:40:19.951Z,4.05
2022-10-06T18:42:22.043Z,4.00
2022-10-06T18:44:42.414Z,5.05
2022-10-06T18:47:02.865Z,4.70
2022-10-06T18:49:23.739Z,6.85
2022-10-06T18:51:36.073Z,7.38
2022-10-06T18:53:38.334Z,5.72
2022-10-06T18:55:40.126Z,6.03
2022-10-06T18:57:42.951Z,6.30
2022-10-06T19:01:48.115Z,6.40
2022-10-06T19:03:50.530Z,5.63
2022-10-06T19:05:52.701Z,5.20
2022-10-06T19:07:54.647Z,6.20
2022-10-06T19:09:56.407Z,7.20
2022-10-06T19:11:58.290Z,6.45
2022-10-06T19:14:00.171Z,5.93
2022-10-06T19:16:02.705Z,5.82
2022-10-06T19:18:04.343Z,5.28
2022-10-06T19:20:06.495Z,5.32
2022-10-06T19:22:08.488Z,4.85
2022-10-06T19:24:11.224Z,6.40
2022-10-06T19:28:15.462Z,5.60
2022-10-06T19:30:17.023Z,7.13
2022-10-06T19:32:21.009Z,6.40
2022-10-06T19:34:42.564Z,4.88
2022-10-06T19:36:49.457Z,5.30
2022-10-06T19:38:51.185Z,5.78
2022-10-06T19:40:53.109Z,4.80
2022-10-06T19:42:54.895Z,5.05
2022-10-06T19:44:56.691Z,4.05
2022-10-06T19:46:58.379Z,4.95
2022-10-06T19:49:05.478Z,6.80
2022-10-06T19:51:14.712Z,6.10
2022-10-06T19:53:17.230Z,5.28
2022-10-06T19:55:19.854Z,5.53
2022-10-06T19:57:21.787Z,5.07
2022-10-06T19:59:23.555Z,5.28
2022-10-06T20:01:26.900Z,5.45
2022-10-06T20:03:30.575Z,5.03
2022-10-06T20:05:34.867Z,5.32
2022-10-06T20:07:36.468Z,5.47
2022-10-06T20:09:38.309Z,4.82
2022-10-06T20:11:40.897Z,5.95
2022-10-06T20:13:43.309Z,5.38
2022-10-06T20:15:45.115Z,5.88
2022-10-06T20:17:47.880Z,7.40
2022-10-06T20:21:54.939Z,8.82
2022-10-06T20:23:58.092Z,7.07
2022-10-06T20:26:19.496Z,8.13
2022-10-06T20:28:21.418Z,11.05
2022-10-06T20:30:22.995Z,23.65
2022-10-06T20:32:24.513Z,9.38
2022-10-06T20:34:31.719Z,8.90
2022-10-06T20:36:34.248Z,10.98
2022-10-06T20:38:54.420Z,8.77
2022-10-06T20:40:56.555Z,9.00
2022-10-06T20:42:59.366Z,11.10
2022-10-06T20:45:00.898Z,11.30
2022-10-06T20:47:03.971Z,10.35
2022-10-06T20:49:07.308Z,70.75
2022-10-06T20:51:09.492Z,14.90
2022-10-06T20:53:11.612Z,16.02
2022-10-06T20:55:14.485Z,14.20
2022-10-06T20:57:16.370Z,12.27
2022-10-06T20:59:19.433Z,13.18
2022-10-06T21:01:21.894Z,14.10
2022-10-06T21:03:23.417Z,12.88
2022-10-06T21:05:25.693Z,13.52
2022-10-06T21:07:27.297Z,12.70
2022-10-06T21:09:29.247Z,12.75
2022-10-06T21:11:31.989Z,12.40
2022-10-06T21:13:33.686Z,12.50
2022-10-06T21:15:43.504Z,13.43
2022-10-06T21:17:46.427Z,13.55
2022-10-06T21:19:48.396Z,14.82
2022-10-06T21:21:51.534Z,15.73
2022-10-06T21:23:53.407Z,16.27
2022-10-06T21:25:55.843Z,16.45
2022-10-06T21:27:57.403Z,17.73
2022-10-06T21:29:59.180Z,16.88
2022-10-06T21:32:01.175Z,17.02
2022-10-06T21:34:03.390Z,18.33
2022-10-06T21:36:05.226Z,17.17
2022-10-06T21:38:07.250Z,45.72
2022-10-06T21:40:09.018Z,24.98
2022-10-06T21:42:10.970Z,21.60
2022-10-06T21:44:13.565Z,20.15
2022-10-06T21:46:27.904Z,21.95
2022-10-06T21:48:30.678Z,20.42
2022-10-06T21:50:32.242Z,21.42
2022-10-06T21:52:33.731Z,20.35
2022-10-06T21:54:35.614Z,20.83
2022-10-06T21:56:37.573Z,21.05
2022-10-06T21:58:39.075Z,22.92
2022-10-06T22:00:40.893Z,22.52
2022-10-06T22:02:42.517Z,21.75
2022-10-06T22:04:44.142Z,20.75
2022-10-06T22:06:50.148Z,22.27
2022-10-06T22:08:51.944Z,22.00
2022-10-06T22:10:53.493Z,24.00
2022-10-06T22:12:55.292Z,24.50
2022-10-06T22:14:59.057Z,24.15
2022-10-06T22:17:00.610Z,24.02
2022-10-06T22:19:04.005Z,23.73
2022-10-06T22:21:16.201Z,23.55
2022-10-06T22:23:17.754Z,24.40
2022-10-06T22:25:20.571Z,24.80
2022-10-06T22:27:22.061Z,26.15
2022-10-06T22:29:23.570Z,26.25
2022-10-06T22:31:26.682Z,24.48
2022-10-06T22:33:28.302Z,24.35
2022-10-06T22:35:29.861Z,26.00
2022-10-06T22:37:31.621Z,25.92
2022-10-06T22:39:33.459Z,26.13
2022-10-06T22:41:34.977Z,26.00
2022-10-06T22:43:36.740Z,25.35
2022-10-06T22:45:38.242Z,26.08
2022-10-06T22:47:39.735Z,26.45
2022-10-06T22:49:41.429Z,28.15
2022-10-06T22:51:42.977Z,27.02
2022-10-06T22:53:44.492Z,27.63
2022-10-06T22:55:46.356Z,28.17
2022-10-06T22:57:47.933Z,28.83
2022-10-06T22:59:49.418Z,29.05
2022-10-06T23:01:52.128Z,28.30
2022-10-06T23:03:54.848Z,27.77
2022-10-06T23:06:00.136Z,26.42
2022-10-06T23:08:02.678Z,27.05
2022-10-06T23:10:04.480Z,26.77
2022-10-06T23:12:05.989Z,26.52
2022-10-06T23:14:07.710Z,27.13
2022-10-06T23:16:10.232Z,27.42
2022-10-06T23:18:11.903Z,28.88
2022-10-06T23:20:14.046Z,30.48
2022-10-06T23:22:15.548Z,27.83
2022-10-06T23:24:17.212Z,28.65
2022-10-06T23:26:19.370Z,30.50
2022-10-06T23:28:20.930Z,29.45
2022-10-06T23:30:22.548Z,29.35
2022-10-06T23:32:24.433Z,29.42
2022-10-06T23:34:25.934Z,29.98
2022-10-06T23:36:27.515Z,30.33
2022-10-06T23:38:29.307Z,29.88
2022-10-06T23:40:30.982Z,31.17
2022-10-06T23:42:33.068Z,29.50
2022-10-06T23:44:35.121Z,30.77
2022-10-06T23:46:36.894Z,29.33
2022-10-06T23:48:38.474Z,28.90
2022-10-06T23:50:40.317Z,30.10
2022-10-06T23:52:41.878Z,30.83
2022-10-06T23:54:43.413Z,30.75
2022-10-06T23:56:45.270Z,30.95
2022-10-06T23:58:47.013Z,30.73
